Time;durP1;ratioP1;P1;durP2;ratioP2;P2;SDS_P1;SDS_P2;PMS_P1;PMS_P2;Temp;Humidity;BMP_temperature;BMP_pressure;BME280_temperature;BME280_humidity;BME280_pressure;Samples;Min_cycle;Max_cycle;Signal;HPM_P1;HPM_P2
2022/06/02 00:00:58;;;;;;;;;;;;;;;9.68;100.00;93161.94;2106110;28;20040;-83
2022/06/02 00:02:20;;;;;;;3.35;3.00;;;;;;;9.79;100.00;93173.19;2092798;28;19959;-83
2022/06/02 00:03:41;;;;;;;5.28;2.70;;;;;;;9.55;100.00;93175.88;2095883;28;20024;-83
2022/06/02 00:05:07;;;;;;;3.97;3.03;;;;;;;9.52;100.00;93176.69;2092887;28;20877;-84
2022/06/02 00:06:16;;;;;;;3.78;2.67;;;;;;;9.59;100.00;93175.81;2088794;28;20032;-83
2022/06/02 00:07:23;;;;;;;4.50;3.10;;;;;;;9.56;100.00;93171.28;2091082;28;20171;-83
2022/06/02 00:10:29;;;;;;;5.72;3.05;;;;;;;9.40;100.00;93181.88;2097473;28;20035;-83
2022/06/02 00:11:32;;;;;;;2.90;2.63;;;;;;;9.37;100.00;93175.41;2095055;28;20032;-83
2022/06/02 00:12:47;;;;;;;4.20;3.10;;;;;;;9.32;100.00;93173.97;2082592;28;20060;-82
2022/06/02 00:14:24;;;;;;;3.28;2.85;;;;;;;9.33;100.00;93166.72;2095114;28;20021;-83
2022/06/02 00:15:33;;;;;;;3.55;2.90;;;;;;;9.37;100.00;93169.34;2103163;28;20024;-85
2022/06/02 00:17:05;;;;;;;3.25;2.95;;;;;;;9.39;100.00;93165.06;2100884;28;20576;-85
2022/06/02 00:18:14;;;;;;;4.32;3.20;;;;;;;9.38;100.00;93166.25;2106534;28;20035;-83
2022/06/02 00:19:29;;;;;;;3.80;2.83;;;;;;;9.41;100.00;93164.69;2100436;28;20035;-83
2022/06/02 00:20:36;;;;;;;4.07;3.05;;;;;;;9.46;100.00;93174.91;2108616;28;20020;-84
2022/06/02 00:21:51;;;;;;;3.30;2.97;;;;;;;9.41;100.00;93181.44;2099216;28;20115;-84
2022/06/02 00:23:04;;;;;;;3.42;3.13;;;;;;;9.53;100.00;93170.19;2106427;28;20032;-82
2022/06/02 00:24:30;;;;;;;5.97;3.25;;;;;;;9.46;100.00;93175.66;2108389;28;20038;-83
2022/06/02 00:25:46;;;;;;;5.07;2.95;;;;;;;9.36;100.00;93171.25;2101493;28;20059;-82
2022/06/02 00:26:52;;;;;;;3.22;2.80;;;;;;;9.24;100.00;93172.56;2094143;28;20070;-82
2022/06/02 00:28:32;;;;;;;3.78;3.40;;;;;;;9.20;100.00;93163.13;2099695;28;20029;-82
2022/06/02 00:29:54;;;;;;;4.97;3.30;;;;;;;9.15;100.00;93174.25;2103569;28;20044;-82
2022/06/02 00:31:05;;;;;;;3.90;3.00;;;;;;;9.24;100.00;93172.56;2095726;28;20075;-84
2022/06/02 00:32:10;;;;;;;5.38;3.00;;;;;;;9.26;100.00;93170.25;2099591;28;20086;-83
2022/06/02 00:33:37;;;;;;;5.53;3.13;;;;;;;9.27;100.00;93171.00;2107074;28;20024;-84
2022/06/02 00:35:16;;;;;;;3.58;3.28;;;;;;;9.21;100.00;93175.28;2115924;27;20041;-84
2022/06/02 00:36:24;;;;;;;4.32;3.20;;;;;;;9.30;100.00;93172.84;2117440;27;20032;-82
2022/06/02 00:37:28;;;;;;;3.40;3.10;;;;;;;9.33;100.00;93174.72;2107588;28;20107;-82
2022/06/02 00:38:35;;;;;;;4.80;3.10;;;;;;;9.39;100.00;93178.41;2110889;28;20034;-82
2022/06/02 00:39:38;;;;;;;3.65;3.20;;;;;;;9.49;100.00;93182.84;2112755;27;20031;-83
2022/06/02 00:40:39;;;;;;;3.90;3.08;;;;;;;9.42;100.00;93176.88;2123257;27;20080;-82
2022/06/02 00:41:49;;;;;;;3.53;3.00;;;;;;;9.59;100.00;93168.56;2114734;28;20024;-82
2022/06/02 00:43:10;;;;;;;3.47;3.10;;;;;;;9.34;100.00;93170.88;2120189;27;20039;-81
2022/06/02 00:44:20;;;;;;;6.90;3.40;;;;;;;9.20;100.00;93176.44;2109267;28;20043;-83
2022/06/02 00:45:22;;;;;;;4.18;3.20;;;;;;;9.16;100.00;93181.09;2106400;28;20103;-82
2022/06/02 00:46:35;;;;;;;4.47;2.97;;;;;;;9.10;100.00;93182.72;2098251;28;20451;-83
2022/06/02 00:48:27;;;;;;;4.05;3.00;;;;;;;9.18;100.00;93184.88;2106293;28;20036;-81
2022/06/02 00:50:12;;;;;;;3.10;2.90;;;;;;;9.22;100.00;93182.13;2096355;28;20397;-83
2022/06/02 00:51:31;;;;;;;4.63;3.17;;;;;;;9.25;100.00;93178.66;2103719;28;20035;-82
2022/06/02 00:53:07;;;;;;;3.20;2.90;;;;;;;9.11;100.00;93184.22;2111687;27;20539;-82
2022/06/02 00:57:39;;;;;;;3.92;2.90;;;;;;;9.16;100.00;93191.75;2110757;28;20031;-85
2022/06/02 00:59:15;;;;;;;3.42;2.97;;;;;;;8.96;100.00;93184.44;2115095;27;20027;-83
2022/06/02 01:00:22;;;;;;;2.65;2.45;;;;;;;8.91;100.00;93189.44;2108510;28;20027;-82
2022/06/02 01:01:27;;;;;;;3.60;3.00;;;;;;;8.82;100.00;93188.06;2091448;28;20021;-83
2022/06/02 01:02:45;;;;;;;4.30;2.60;;;;;;;8.81;100.00;93183.84;2098330;28;20016;-82
2022/06/02 01:03:48;;;;;;;3.60;2.75;;;;;;;8.86;100.00;93190.66;2105078;27;20445;-82
2022/06/02 01:04:49;;;;;;;6.97;2.92;;;;;;;8.76;100.00;93189.66;2106659;28;20462;-82
2022/06/02 01:06:29;;;;;;;3.25;2.70;;;;;;;8.76;100.00;93191.56;2106337;28;20024;-84
2022/06/02 01:07:56;;;;;;;3.65;2.63;;;;;;;8.81;100.00;93194.53;2120253;27;20029;-83
2022/06/02 01:09:30;;;;;;;4.97;2.65;;;;;;;8.89;100.00;93192.53;2118156;27;20071;-83
2022/06/02 01:11:08;;;;;;;3.13;2.78;;;;;;;8.76;100.00;93200.31;2110892;28;20110;-82
2022/06/02 01:12:33;;;;;;;2.65;2.45;;;;;;;8.62;100.00;93197.09;2116442;27;20056;-84
2022/06/02 01:14:12;;;;;;;3.58;2.80;;;;;;;8.65;100.00;93188.28;2109786;28;20019;-83
2022/06/02 01:15:25;;;;;;;2.83;2.53;;;;;;;8.62;100.00;93197.84;2108253;28;20027;-85
2022/06/02 01:16:29;;;;;;;3.53;2.40;;;;;;;8.87;100.00;93189.50;2116387;27;20143;-82
2022/06/02 01:18:10;;;;;;;3.15;2.60;;;;;;;8.99;100.00;93193.50;2123792;27;20019;-84
2022/06/02 01:19:15;;;;;;;4.88;3.25;;;;;;;8.77;100.00;93190.41;2114544;28;20058;-83
2022/06/02 01:20:39;;;;;;;2.50;2.30;;;;;;;8.73;100.00;93195.03;2098943;28;20562;-82
2022/06/02 01:22:23;;;;;;;3.63;2.53;;;;;;;8.86;100.00;93185.31;2112871;27;20027;-84
2022/06/02 01:23:42;;;;;;;4.97;2.97;;;;;;;8.73;100.00;93184.34;2122930;27;20414;-84
2022/06/02 01:25:18;;;;;;;3.85;2.80;;;;;;;8.71;100.00;93184.78;2102620;28;20032;-82
2022/06/02 01:26:38;;;;;;;4.35;3.03;;;;;;;8.67;100.00;93188.63;2107529;28;20093;-82
2022/06/02 01:27:57;;;;;;;3.70;2.93;;;;;;;8.70;100.00;93193.94;2108581;28;20028;-83
2022/06/02 01:29:26;;;;;;;3.00;2.70;;;;;;;8.74;100.00;93205.28;2108661;28;20441;-82
2022/06/02 01:30:30;;;;;;;2.63;2.40;;;;;;;8.73;100.00;93200.34;2101553;28;20442;-82
2022/06/02 01:31:39;;;;;;;4.32;2.70;;;;;;;8.75;100.00;93198.06;2106506;28;20048;-82
2022/06/02 01:32:51;;;;;;;6.22;2.60;;;;;;;8.78;100.00;93195.34;2107308;28;20443;-83
2022/06/02 01:34:29;;;;;;;5.38;2.72;;;;;;;8.76;100.00;93186.22;2099070;28;20040;-82
2022/06/02 01:35:46;;;;;;;4.00;2.70;;;;;;;8.80;100.00;93189.59;2099550;28;20044;-82
2022/06/02 01:37:09;;;;;;;3.85;2.50;;;;;;;8.90;100.00;93185.28;2110464;27;20094;-83
2022/06/02 01:38:41;;;;;;;4.90;2.58;;;;;;;8.95;100.00;93185.56;2106036;28;20023;-83
2022/06/02 01:40:01;;;;;;;2.92;2.72;;;;;;;8.95;100.00;93188.22;2106174;28;20038;-83
2022/06/02 01:41:25;;;;;;;2.53;2.33;;;;;;;8.90;100.00;93183.34;2100186;28;20039;-83
2022/06/02 01:43:00;;;;;;;2.72;2.42;;;;;;;8.91;100.00;93186.78;2095633;28;20028;-82
2022/06/02 01:44:27;;;;;;;4.35;2.40;;;;;;;8.98;100.00;93189.34;2098526;28;20035;-83
2022/06/02 01:45:34;;;;;;;2.92;2.67;;;;;;;8.99;100.00;93196.19;2104778;28;20064;-83
2022/06/02 01:46:44;;;;;;;4.30;2.33;;;;;;;8.98;100.00;93202.69;2107128;27;20020;-83
2022/06/02 01:47:49;;;;;;;2.70;2.28;;;;;;;9.02;100.00;93200.72;2113530;28;20023;-85
2022/06/02 01:48:53;;;;;;;2.60;2.28;;;;;;;9.00;100.00;93201.13;2090886;28;20488;-83
2022/06/02 01:50:25;;;;;;;4.30;2.42;;;;;;;8.97;100.00;93199.25;2105363;28;20042;-83
2022/06/02 01:51:50;;;;;;;2.65;2.45;;;;;;;8.95;100.00;93200.81;2101674;28;20431;-83
2022/06/02 01:53:10;;;;;;;2.40;2.20;;;;;;;9.03;100.00;93194.22;2104245;28;20431;-82
2022/06/02 01:54:13;;;;;;;2.33;2.13;;;;;;;9.03;100.00;93208.31;2108529;28;20089;-82
2022/06/02 01:55:46;;;;;;;3.42;2.50;;;;;;;9.03;100.00;93208.31;2104249;28;20035;-84
2022/06/02 01:56:59;;;;;;;2.50;2.30;;;;;;;9.07;100.00;93213.59;2109811;28;20027;-83
2022/06/02 01:58:05;;;;;;;2.40;2.20;;;;;;;9.08;100.00;93210.50;2100952;28;20024;-83
2022/06/02 01:59:23;;;;;;;4.43;2.70;;;;;;;9.12;100.00;93205.13;2106570;28;20575;-84
2022/06/02 02:00:30;;;;;;;5.45;2.35;;;;;;;9.11;100.00;93211.63;2114373;28;20049;-83
2022/06/02 02:01:45;;;;;;;4.28;2.72;;;;;;;9.15;100.00;93209.66;2114267;28;20032;-82
2022/06/02 02:02:58;;;;;;;3.25;2.67;;;;;;;9.21;100.00;93209.97;2107783;28;20030;-82
2022/06/02 02:04:17;;;;;;;5.45;2.22;;;;;;;9.22;100.00;93203.47;2107335;28;20031;-83
2022/06/02 02:05:46;;;;;;;3.42;2.28;;;;;;;9.21;100.00;93204.63;2108327;28;20161;-83
2022/06/02 02:06:58;;;;;;;5.80;2.42;;;;;;;9.21;100.00;93204.63;2101270;28;20032;-84
2022/06/02 02:07:59;;;;;;;3.13;2.42;;;;;;;9.38;100.00;93214.25;2100577;28;20024;-82
2022/06/02 02:09:23;;;;;;;4.32;2.60;;;;;;;9.36;100.00;93205.19;2105663;28;20020;-82
2022/06/02 02:11:40;;;;;;;4.88;2.63;;;;;;;9.47;100.00;93206.50;2100547;28;20024;-82
2022/06/02 02:13:03;;;;;;;4.30;2.70;;;;;;;9.40;100.00;93206.63;2080338;28;20025;-81
2022/06/02 02:14:28;;;;;;;2.67;2.17;;;;;;;9.43;100.00;93199.72;2080291;28;20128;-83
2022/06/02 02:15:49;;;;;;;3.47;2.50;;;;;;;9.41;100.00;93207.38;2080310;28;20541;-82
2022/06/02 02:17:23;;;;;;;3.85;2.22;;;;;;;9.39;100.00;93207.75;2080258;28;20486;-84
2022/06/02 02:18:29;;;;;;;5.30;2.60;;;;;;;9.36;100.00;93200.59;2094828;28;20039;-82
2022/06/02 02:20:07;;;;;;;2.72;2.47;;;;;;;9.34;100.00;93205.56;2098130;28;20613;-83
2022/06/02 02:21:38;;;;;;;3.72;2.50;;;;;;;9.32;100.00;93208.63;2107401;28;20038;-82
2022/06/02 02:23:03;;;;;;;3.20;2.30;;;;;;;9.37;100.00;93210.09;2104147;28;20058;-84
2022/06/02 02:24:07;;;;;;;2.47;2.28;;;;;;;9.31;100.00;93215.16;2104008;28;20062;-82
2022/06/02 02:25:31;;;;;;;3.42;2.17;;;;;;;9.32;100.00;93208.63;2103002;28;20024;-82
2022/06/02 02:26:39;;;;;;;3.22;2.83;;;;;;;9.36;100.00;93216.59;2087973;28;20083;-82
2022/06/02 02:28:06;;;;;;;3.63;2.22;;;;;;;9.33;100.00;93220.06;2091068;28;20412;-82
2022/06/02 02:29:25;;;;;;;2.65;2.20;;;;;;;9.38;100.00;93210.84;2104445;28;20476;-82
2022/06/02 02:30:36;;;;;;;2.60;2.40;;;;;;;9.45;100.00;93213.41;2099917;28;20111;-83
2022/06/02 02:32:03;;;;;;;2.75;2.10;;;;;;;9.38;100.00;93214.25;2098772;28;20052;-85
2022/06/02 02:33:16;;;;;;;3.45;2.30;;;;;;;9.46;100.00;93214.91;2109617;28;20049;-83
2022/06/02 02:34:31;;;;;;;5.40;2.60;;;;;;;9.47;100.00;93217.16;2114141;28;20024;-83
2022/06/02 02:36:02;;;;;;;3.80;2.95;;;;;;;9.39;100.00;93212.34;2107479;28;20038;-82
2022/06/02 02:37:33;;;;;;;2.90;2.55;;;;;;;9.36;100.00;93216.59;2105624;28;20472;-86
2022/06/02 02:38:44;;;;;;;3.13;2.28;;;;;;;9.32;100.00;93218.56;2110637;28;20429;-84
2022/06/02 02:39:47;;;;;;;;;;;;;;;9.37;100.00;93212.75;2114476;28;20063;-81
2022/06/02 02:41:00;;;;;;;3.00;2.50;;;;;;;9.33;100.00;93214.72;2097496;28;19912;-83
2022/06/02 02:42:05;;;;;;;2.40;2.20;;;;;;;9.31;100.00;93201.81;2100977;28;20130;-84
2022/06/02 02:43:24;;;;;;;3.42;2.42;;;;;;;9.28;100.00;93210.59;2106340;28;20132;-84
2022/06/02 02:45:08;;;;;;;4.93;2.35;;;;;;;9.27;100.00;93200.34;2113967;28;20023;-84
2022/06/02 02:46:09;;;;;;;2.92;2.63;;;;;;;9.26;100.00;93202.28;2097975;28;20106;-83
2022/06/02 02:47:37;;;;;;;6.50;2.53;;;;;;;9.38;100.00;93203.59;2105642;28;20027;-82
2022/06/02 02:48:59;;;;;;;2.28;2.13;;;;;;;9.29;100.00;93203.34;2096530;28;20025;-84
2022/06/02 02:50:27;;;;;;;2.58;2.38;;;;;;;9.22;100.00;93206.91;2094956;28;20028;-83
2022/06/02 02:51:47;;;;;;;2.70;2.50;;;;;;;9.29;100.00;93206.03;2100897;28;20020;-82
2022/06/02 02:53:08;;;;;;;2.88;2.15;;;;;;;9.26;100.00;93204.16;2108122;28;20024;-82
2022/06/02 02:54:21;;;;;;;3.20;2.13;;;;;;;9.29;100.00;93204.09;2108489;28;20034;-82
2022/06/02 02:55:59;;;;;;;2.60;2.40;;;;;;;9.24;100.00;93209.91;2122347;28;20019;-83
2022/06/02 02:57:45;;;;;;;2.78;2.25;;;;;;;9.25;100.00;93211.41;2122471;28;20023;-84
2022/06/02 02:59:12;;;;;;;6.47;2.28;;;;;;;9.23;100.00;93208.41;2102237;28;20560;-82
2022/06/02 03:00:15;;;;;;;2.33;2.17;;;;;;;9.22;100.00;93211.47;2109083;28;20114;-85
2022/06/02 03:01:38;;;;;;;4.10;2.08;;;;;;;9.36;100.00;93211.25;2105821;28;20036;-83
2022/06/02 03:03:07;;;;;;;2.70;2.15;;;;;;;9.27;100.00;93213.69;2094933;28;20028;-82
2022/06/02 03:04:37;;;;;;;3.80;2.17;;;;;;;9.22;100.00;93206.91;2105104;28;20024;-84
2022/06/02 03:05:44;;;;;;;3.40;2.42;;;;;;;9.30;100.00;93210.19;2095561;28;20481;-83
2022/06/02 03:06:47;;;;;;;4.43;2.20;;;;;;;9.22;100.00;93206.13;2098814;28;20021;-82
2022/06/02 03:07:49;;;;;;;2.15;1.90;;;;;;;9.21;100.00;93212.63;2114793;28;20031;-83
2022/06/02 03:09:12;;;;;;;2.25;2.00;;;;;;;9.19;100.00;93209.63;2115487;28;20439;-84
2022/06/02 03:10:27;;;;;;;2.88;2.42;;;;;;;9.13;100.00;93214.66;2110423;28;20024;-84
2022/06/02 03:11:31;;;;;;;4.15;2.45;;;;;;;9.10;100.00;93212.78;2102661;28;20020;-84
2022/06/02 03:12:40;;;;;;;2.47;2.03;;;;;;;9.05;100.00;93203.34;2091346;28;20036;-82
2022/06/02 03:14:18;;;;;;;2.30;2.10;;;;;;;9.03;100.00;93205.63;2092915;28;20021;-83
2022/06/02 03:15:30;;;;;;;2.42;2.10;;;;;;;8.94;100.00;93201.97;2103872;28;20033;-84
2022/06/02 03:16:35;;;;;;;3.88;2.53;;;;;;;8.98;100.00;93208.00;2093362;28;20498;-82
2022/06/02 03:17:58;;;;;;;2.30;2.10;;;;;;;8.85;100.00;93207.81;2099984;28;20381;-84
2022/06/02 03:19:20;;;;;;;2.42;2.20;;;;;;;8.79;100.00;93206.75;2101804;28;20030;-83
2022/06/02 03:20:27;;;;;;;2.42;2.10;;;;;;;8.77;100.00;93207.13;2093342;28;20017;-82
2022/06/02 03:21:32;;;;;;;2.10;1.92;;;;;;;8.87;100.00;93216.16;2092096;28;20078;-83
2022/06/02 03:22:51;;;;;;;4.53;2.00;;;;;;;8.74;100.00;93205.28;2107063;28;20023;-83
2022/06/02 03:24:04;;;;;;;4.40;2.17;;;;;;;8.70;100.00;93206.50;2101289;28;20020;-83
2022/06/02 03:25:25;;;;;;;3.85;2.00;;;;;;;8.89;100.00;93203.19;2092189;28;20052;-82
2022/06/02 03:26:44;;;;;;;3.60;2.22;;;;;;;8.78;100.00;93214.00;2104390;28;20045;-82
2022/06/02 03:28:08;;;;;;;2.42;1.95;;;;;;;8.74;100.00;93207.97;2104437;28;20154;-83
2022/06/02 03:29:43;;;;;;;4.03;2.38;;;;;;;8.69;100.00;93204.97;2101771;28;20027;-84
2022/06/02 03:30:55;;;;;;;3.30;2.00;;;;;;;8.67;100.00;93209.97;2094815;28;20032;-86
2022/06/02 03:32:02;;;;;;;3.05;1.85;;;;;;;8.68;100.00;93203.47;2101961;28;20103;-83
2022/06/02 03:33:28;;;;;;;2.47;2.10;;;;;;;8.51;100.00;93207.88;2114720;28;20015;-84
2022/06/02 03:34:50;;;;;;;2.95;2.20;;;;;;;8.38;100.00;93206.88;2107051;28;20028;-82
2022/06/02 03:36:23;;;;;;;1.83;1.67;;;;;;;8.34;100.00;93209.59;2093211;28;20028;-84
2022/06/02 03:37:55;;;;;;;3.10;1.98;;;;;;;8.38;100.00;93215.63;2091124;28;20032;-82
2022/06/02 03:39:04;;;;;;;2.20;2.00;;;;;;;8.31;100.00;93205.03;2114733;27;20034;-83
2022/06/02 03:40:43;;;;;;;6.93;2.45;;;;;;;8.45;100.00;93206.81;2115293;28;20030;-84
2022/06/02 03:42:04;;;;;;;2.92;2.13;;;;;;;8.26;100.00;93206.25;2103587;28;20572;-83
2022/06/02 03:43:12;;;;;;;4.97;2.45;;;;;;;8.29;100.00;93210.00;2096025;28;20122;-83
2022/06/02 03:44:43;;;;;;;2.47;2.28;;;;;;;8.23;100.00;93212.34;2091200;28;20032;-84
2022/06/02 03:46:04;;;;;;;2.45;1.90;;;;;;;8.17;100.00;93213.19;2098270;28;20499;-83
2022/06/02 03:47:35;;;;;;;2.50;1.88;;;;;;;8.11;100.00;93217.44;2093909;28;20032;-84
2022/06/02 03:48:50;;;;;;;2.33;2.10;;;;;;;8.01;100.00;93214.50;2102555;28;20035;-83
2022/06/02 03:50:39;;;;;;;2.30;1.75;;;;;;;8.22;100.00;93216.16;2102500;28;20039;-84
2022/06/02 03:51:54;;;;;;;1.77;1.65;;;;;;;8.17;100.00;93226.50;2079678;28;20457;-81
2022/06/02 03:53:23;;;;;;;2.40;1.95;;;;;;;8.13;100.00;93220.47;2071567;28;20030;-82
2022/06/02 03:54:54;;;;;;;7.97;1.95;;;;;;;8.05;100.00;93209.88;2096018;28;20036;-83
2022/06/02 03:56:38;;;;;;;2.08;1.90;;;;;;;8.11;100.00;93217.44;2106668;28;20081;-82
2022/06/02 03:58:04;;;;;;;2.72;2.00;;;;;;;8.08;100.00;93217.09;2106607;28;20570;-82
2022/06/02 03:59:39;;;;;;;4.10;2.00;;;;;;;8.19;100.00;93221.53;2101795;28;20032;-81
2022/06/02 04:00:52;;;;;;;2.10;1.65;;;;;;;8.22;100.00;93223.41;2101212;28;20020;-83
2022/06/02 04:02:36;;;;;;;2.15;1.95;;;;;;;8.20;100.00;93223.78;2108154;28;20024;-83
2022/06/02 04:04:13;;;;;;;4.78;2.00;;;;;;;8.04;100.00;93220.94;2098417;28;20020;-84
2022/06/02 04:05:37;;;;;;;3.20;2.10;;;;;;;8.03;100.00;93224.72;2100002;28;20095;-84
2022/06/02 04:06:57;;;;;;;1.77;1.67;;;;;;;7.99;100.00;93221.34;2096614;28;20024;-83
2022/06/02 04:08:04;;;;;;;2.42;1.80;;;;;;;7.93;100.00;93220.28;2101183;28;20031;-82
2022/06/02 04:09:16;;;;;;;3.05;1.60;;;;;;;7.78;100.00;93222.34;2090833;28;20029;-82
2022/06/02 04:10:32;;;;;;;3.38;2.38;;;;;;;7.79;100.00;93229.91;2099956;28;20024;-81
2022/06/02 04:13:42;;;;;;;1.95;1.83;;;;;;;8.00;100.00;93215.66;2112562;28;20050;-83
2022/06/02 04:15:05;;;;;;;6.90;2.00;;;;;;;7.92;100.00;93219.53;2089564;28;20509;-83
2022/06/02 04:16:24;;;;;;;4.75;1.80;;;;;;;7.83;100.00;93214.66;2109526;28;20028;-82
2022/06/02 04:17:38;;;;;;;3.28;1.75;;;;;;;7.93;100.00;93223.69;2100911;28;20111;-83
2022/06/02 04:19:00;;;;;;;2.00;1.80;;;;;;;7.91;100.00;93215.38;2100295;28;20047;-82
2022/06/02 04:20:34;;;;;;;3.85;2.00;;;;;;;7.92;100.00;93216.88;2103495;28;20023;-82
2022/06/02 04:21:53;;;;;;;3.72;1.63;;;;;;;7.93;100.00;93218.38;2102872;28;20020;-82
2022/06/02 04:23:31;;;;;;;2.83;1.80;;;;;;;7.98;100.00;93220.59;2100782;28;20024;-84
2022/06/02 04:25:17;;;;;;;3.72;1.60;;;;;;;7.96;100.00;93219.50;2107931;28;20028;-82
2022/06/02 04:26:47;;;;;;;1.90;1.50;;;;;;;7.93;100.00;93226.34;2072967;28;20041;-82
2022/06/02 04:27:48;;;;;;;;;;;;;;;7.88;100.00;93220.72;2082107;28;20036;-82
2022/06/02 04:28:49;;;;;;;2.45;1.40;;;;;;;7.90;100.00;93223.72;2089951;28;19951;-82
2022/06/02 04:30:23;;;;;;;3.40;2.00;;;;;;;7.90;100.00;93216.53;2089763;28;20782;-81
2022/06/02 04:31:42;;;;;;;1.80;1.70;;;;;;;7.78;100.00;93217.75;2083607;28;20032;-82
2022/06/02 04:33:20;;;;;;;2.00;1.80;;;;;;;7.78;100.00;93217.00;2094858;28;20025;-82
2022/06/02 04:34:35;;;;;;;2.38;1.77;;;;;;;7.88;100.00;93220.72;2094820;28;20577;-83
2022/06/02 04:36:02;;;;;;;2.53;1.67;;;;;;;7.94;100.00;93219.88;2093634;28;20021;-82
2022/06/02 04:37:28;;;;;;;2.50;2.03;;;;;;;7.94;100.00;93224.44;2093387;28;20512;-83
2022/06/02 04:38:42;;;;;;;2.08;1.90;;;;;;;7.95;100.00;93221.41;2105444;28;20011;-83
2022/06/02 04:40:07;;;;;;;6.47;2.08;;;;;;;8.00;100.00;93222.88;2108371;28;20020;-84
2022/06/02 04:41:33;;;;;;;3.88;1.92;;;;;;;8.00;100.00;93228.97;2109661;28;20016;-84
2022/06/02 04:42:58;;;;;;;4.95;2.20;;;;;;;7.99;100.00;93232.00;2101565;28;20055;-83
2022/06/02 04:44:23;;;;;;;3.78;2.05;;;;;;;7.98;100.00;93235.81;2096579;28;20404;-82
2022/06/02 04:45:46;;;;;;;3.63;2.40;;;;;;;8.02;100.00;93241.84;2102128;28;20549;-83
2022/06/02 04:46:56;;;;;;;2.28;2.13;;;;;;;8.10;100.00;93239.88;2109461;28;20039;-83
2022/06/02 04:48:43;;;;;;;4.22;2.20;;;;;;;8.15;100.00;93240.19;2099482;28;20768;-84
2022/06/02 04:50:02;;;;;;;3.20;2.70;;;;;;;8.13;100.00;93239.84;2083030;28;20526;-85
2022/06/02 04:51:34;;;;;;;5.80;5.20;;;;;;;8.17;100.00;93243.25;2100255;28;20028;-82
2022/06/02 04:52:45;;;;;;;14.45;10.90;;;;;;;8.30;100.00;93246.16;2106614;28;20518;-83
2022/06/02 04:53:52;;;;;;;7.15;3.92;;;;;;;8.46;100.00;93249.00;2107737;28;20031;-86
2022/06/02 04:55:24;;;;;;;5.63;2.60;;;;;;;8.46;100.00;93243.69;2106199;28;20110;-86
2022/06/02 04:56:33;;;;;;;6.70;3.03;;;;;;;8.49;100.00;93247.47;2106838;28;20038;-85
2022/06/02 04:57:46;;;;;;;4.87;2.37;;;;;;;8.54;100.00;93249.69;2107552;28;20024;-82
2022/06/02 04:59:18;;;;;;;2.25;2.05;;;;;;;8.62;100.00;93247.72;2099320;28;20449;-84
2022/06/02 05:01:05;;;;;;;3.95;2.20;;;;;;;8.69;100.00;93250.28;2097925;28;20631;-83
2022/06/02 05:02:11;;;;;;;3.95;1.85;;;;;;;8.69;100.00;93259.03;2076782;28;20796;-85
2022/06/02 05:03:42;;;;;;;4.63;2.20;;;;;;;8.76;100.00;93255.53;2064498;28;20100;-85
2022/06/02 05:04:58;;;;;;;4.70;2.67;;;;;;;9.03;100.00;93256.28;2072783;28;20478;-83
2022/06/02 05:06:25;;;;;;;3.60;2.65;;;;;;;9.13;100.00;93260.00;2080832;28;20021;-83
2022/06/02 05:07:45;;;;;;;5.50;2.33;;;;;;;9.15;100.00;93259.59;2083624;28;20029;-84
2022/06/02 05:09:03;;;;;;;4.75;2.22;;;;;;;9.24;100.00;93254.50;2100456;28;20052;-84
2022/06/02 05:10:22;;;;;;;8.82;4.95;;;;;;;9.49;100.00;93262.13;2097512;28;20033;-82
2022/06/02 05:11:49;;;;;;;2.70;2.42;;;;;;;9.54;100.00;93259.75;2091863;28;20615;-84
2022/06/02 05:13:18;;;;;;;5.03;2.20;;;;;;;9.57;100.00;93258.97;2086570;28;20073;-84
2022/06/02 05:14:32;;;;;;;2.47;1.85;;;;;;;9.75;100.00;93258.66;2092666;28;20141;-83
2022/06/02 05:15:59;;;;;;;2.38;2.03;;;;;;;9.94;100.00;93254.53;2105518;28;20028;-83
2022/06/02 05:17:26;;;;;;;23.52;4.30;;;;;;;9.93;100.00;93253.03;2113115;28;20122;-85
2022/06/02 05:18:36;;;;;;;3.45;1.63;;;;;;;9.94;100.00;93253.78;2102548;28;20448;-83
2022/06/02 05:20:07;;;;;;;3.78;2.05;;;;;;;10.08;99.98;93269.56;2092139;28;20062;-84
2022/06/02 05:21:36;;;;;;;7.00;2.40;;;;;;;10.08;100.00;93272.22;2096429;28;20032;-83
2022/06/02 05:23:04;;;;;;;4.53;2.20;;;;;;;10.09;99.63;93263.03;2103707;28;20035;-83
2022/06/02 05:24:37;;;;;;;5.00;1.77;;;;;;;10.05;100.00;93259.69;2118451;27;20102;-85
2022/06/02 05:26:28;;;;;;;3.35;2.15;;;;;;;10.07;100.00;93260.78;2110287;27;20020;-82
2022/06/02 05:27:59;;;;;;;2.65;1.80;;;;;;;10.07;100.00;93268.81;2077723;28;20092;-83
2022/06/02 05:29:30;;;;;;;4.18;2.08;;;;;;;10.27;100.00;93260.84;2122201;27;20035;-83
2022/06/02 05:30:34;;;;;;;;;;;;;;;10.29;98.16;93268.47;2075181;28;20034;-85
2022/06/02 05:31:44;;;;;;;3.17;1.77;;;;;;;10.43;97.71;93262.09;2091365;28;20808;-84
2022/06/02 05:33:07;;;;;;;1.50;1.40;;;;;;;10.51;93.00;93264.22;2091188;28;20071;-85
2022/06/02 05:34:24;;;;;;;1.77;1.63;;;;;;;10.58;96.96;93258.75;2102625;28;20405;-85
2022/06/02 05:35:32;;;;;;;5.28;1.88;;;;;;;10.68;95.41;93259.69;2109990;27;20028;-83
2022/06/02 05:36:51;;;;;;;2.53;1.90;;;;;;;10.78;94.85;93261.41;2113671;28;20024;-84
2022/06/02 05:38:00;;;;;;;2.10;1.58;;;;;;;10.80;98.58;93263.69;2110507;27;20031;-82
2022/06/02 05:39:37;;;;;;;2.47;1.70;;;;;;;10.86;97.26;93261.25;2106389;28;20059;-84
2022/06/02 05:40:56;;;;;;;2.83;1.60;;;;;;;10.82;89.99;93251.38;2094736;28;20039;-81
2022/06/02 05:42:05;;;;;;;3.55;2.00;;;;;;;10.98;93.78;93252.63;2106086;27;20019;-82
2022/06/02 05:43:32;;;;;;;5.35;1.45;;;;;;;10.96;95.37;93250.31;2098294;28;20570;-84
2022/06/02 05:44:57;;;;;;;2.10;1.77;;;;;;;10.88;95.49;93259.66;2109302;27;20046;-83
2022/06/02 05:46:23;;;;;;;5.18;1.80;;;;;;;10.97;97.41;93256.44;2117044;27;20059;-84
2022/06/02 05:47:39;;;;;;;2.90;2.42;;;;;;;11.05;95.00;93257.78;2113712;28;20024;-84
2022/06/02 05:49:26;;;;;;;2.90;1.90;;;;;;;11.22;95.24;93263.94;2097953;28;20850;-83
2022/06/02 05:50:30;;;;;;;5.00;1.55;;;;;;;11.19;95.05;93262.06;2116796;27;20127;-84
2022/06/02 05:51:46;;;;;;;1.95;1.80;;;;;;;11.17;95.32;93270.53;2100271;28;20523;-81
2022/06/02 05:53:09;;;;;;;2.95;1.80;;;;;;;11.22;95.85;93266.59;2108274;28;20024;-84
2022/06/02 05:54:17;;;;;;;2.22;1.70;;;;;;;11.27;96.75;93256.16;2101700;28;20062;-83
2022/06/02 05:55:29;;;;;;;2.70;2.00;;;;;;;11.22;95.24;93261.25;2111556;28;20767;-86
2022/06/02 05:56:47;;;;;;;3.28;1.92;;;;;;;11.27;95.92;93256.16;2098772;28;20024;-84
2022/06/02 05:58:21;;;;;;;3.60;1.90;;;;;;;11.54;94.87;93261.28;2093321;28;20025;-84
2022/06/02 05:59:41;;;;;;;6.28;2.30;;;;;;;11.68;92.16;93254.13;2105189;28;20071;-82
2022/06/02 06:01:01;;;;;;;4.18;2.17;;;;;;;11.56;91.88;93261.63;2110151;27;20040;-84
2022/06/02 06:02:30;;;;;;;2.60;1.90;;;;;;;11.45;93.15;93250.41;2113704;28;20031;-82
2022/06/02 06:03:48;;;;;;;5.40;2.05;;;;;;;11.70;92.24;93255.19;2113536;27;20023;-82
2022/06/02 06:05:02;;;;;;;2.42;1.75;;;;;;;11.56;93.66;93258.19;2107355;28;20128;-83
2022/06/02 06:06:29;;;;;;;2.03;1.83;;;;;;;11.64;92.55;93264.91;2107117;28;20103;-83
2022/06/02 06:07:46;;;;;;;4.30;2.10;;;;;;;11.75;91.43;93259.28;2106099;28;20070;-82
2022/06/02 06:09:07;;;;;;;3.25;1.95;;;;;;;11.80;90.77;93256.84;2100586;28;20135;-85
2022/06/02 06:10:20;;;;;;;2.17;1.95;;;;;;;11.65;88.29;93260.31;2102564;28;20107;-86
2022/06/02 06:12:00;;;;;;;5.22;2.03;;;;;;;11.64;91.52;93262.22;2106481;28;20443;-84
2022/06/02 06:13:12;;;;;;;2.97;1.90;;;;;;;11.71;91.22;93255.94;2101937;28;20500;-83
2022/06/02 06:14:54;;;;;;;2.25;1.85;;;;;;;11.77;87.32;93256.94;2097268;28;20055;-84
2022/06/02 06:16:16;;;;;;;5.15;2.25;;;;;;;11.47;88.36;93261.47;2107754;28;20031;-82
2022/06/02 06:17:34;;;;;;;2.08;1.88;;;;;;;11.55;88.06;93256.69;2102335;28;20053;-83
2022/06/02 06:19:24;;;;;;;2.40;2.20;;;;;;;11.35;87.53;93256.75;2107477;28;20028;-83
2022/06/02 06:20:52;;;;;;;3.17;2.22;;;;;;;11.63;89.38;93260.69;2105371;28;20134;-85
2022/06/02 06:22:32;;;;;;;4.55;2.10;;;;;;;11.56;86.77;93260.88;2112763;28;20035;-83
2022/06/02 06:23:48;;;;;;;2.80;2.20;;;;;;;11.55;91.81;93268.16;2110436;28;20028;-84
2022/06/02 06:25:15;;;;;;;3.13;1.90;;;;;;;11.68;90.50;93268.25;2107124;28;20953;-86
2022/06/02 06:26:45;;;;;;;4.22;2.22;;;;;;;11.63;89.18;93268.72;2109867;28;20035;-83
2022/06/02 06:27:52;;;;;;;3.22;2.10;;;;;;;11.70;91.73;93267.81;2113955;27;20039;-84
2022/06/02 06:29:19;;;;;;;3.80;1.80;;;;;;;11.81;90.67;93271.00;2105188;28;20567;-82